Time;durP1;ratioP1;P1;durP2;ratioP2;P2;SDS_P1;SDS_P2;PMS_P1;PMS_P2;Temp;Humidity;BMP_temperature;BMP_pressure;BME280_temperature;BME280_humidity;BME280_pressure;Samples;Min_cycle;Max_cycle;Signal;HPM_P1;HPM_P2
2022/08/16 00:00:53;;;;;;;28.65;21.05;;;;;;;20.17;100.00;100519.34;5033596;28;20440;-76
2022/08/16 00:03:18;;;;;;;25.67;20.02;;;;;;;20.11;100.00;100522.16;5038684;28;20025;-76
2022/08/16 00:05:44;;;;;;;29.52;21.38;;;;;;;20.10;100.00;100523.09;5035182;28;20554;-75
2022/08/16 00:08:10;;;;;;;30.25;21.33;;;;;;;20.11;100.00;100523.97;5041952;28;20414;-76
2022/08/16 00:10:36;;;;;;;28.42;21.38;;;;;;;20.09;100.00;100526.69;5038498;28;20474;-75
2022/08/16 00:13:05;;;;;;;27.50;21.50;;;;;;;20.04;100.00;100526.81;5044699;28;20032;-75
2022/08/16 00:15:37;;;;;;;30.98;22.25;;;;;;;20.08;100.00;100532.94;5047082;28;20067;-78
2022/08/16 00:18:03;;;;;;;29.05;22.08;;;;;;;20.11;100.00;100540.88;5047091;28;20016;-76
2022/08/16 00:20:30;;;;;;;35.78;23.20;;;;;;;20.12;100.00;100534.63;5045883;28;20029;-76
2022/08/16 00:22:56;;;;;;;29.15;20.23;;;;;;;20.16;100.00;100540.75;5038184;28;20029;-76
2022/08/16 00:25:23;;;;;;;29.70;21.75;;;;;;;20.16;100.00;100538.94;5043132;28;20029;-75
2022/08/16 00:27:49;;;;;;;29.60;21.67;;;;;;;20.20;100.00;100532.59;5047442;28;20036;-76
2022/08/16 00:30:16;;;;;;;37.78;23.02;;;;;;;20.21;100.00;100528.13;5040539;28;20037;-77
2022/08/16 00:32:44;;;;;;;27.15;21.60;;;;;;;20.24;100.00;100533.41;5037009;28;20039;-77
2022/08/16 00:35:17;;;;;;;29.00;20.60;;;;;;;20.26;100.00;100541.38;5039907;28;20021;-75
2022/08/16 00:37:45;;;;;;;29.20;19.55;;;;;;;20.27;100.00;100543.13;5048785;28;20047;-76
2022/08/16 00:40:14;;;;;;;24.60;18.20;;;;;;;20.29;100.00;100546.63;5048033;28;20445;-77
2022/08/16 00:42:39;;;;;;;25.30;19.30;;;;;;;20.31;100.00;100551.00;5040577;28;20068;-77
2022/08/16 00:45:40;;;;;;;24.70;18.42;;;;;;;20.33;100.00;100542.94;5033525;28;20470;-76
2022/08/16 00:48:13;;;;;;;26.52;18.95;;;;;;;20.34;100.00;100540.22;5036925;28;20033;-75
2022/08/16 00:50:40;;;;;;;27.38;18.65;;;;;;;20.34;100.00;100539.34;5034020;28;20025;-75
2022/08/16 00:53:09;;;;;;;26.58;18.55;;;;;;;20.34;100.00;100539.34;5047128;28;20041;-75
2022/08/16 00:55:37;;;;;;;21.05;17.65;;;;;;;20.35;100.00;100543.78;5039255;28;20029;-77
2022/08/16 00:58:03;;;;;;;21.40;17.58;;;;;;;20.36;100.00;100542.84;5034569;28;20398;-76
2022/08/16 01:00:31;;;;;;;24.60;17.17;;;;;;;20.37;100.00;100544.59;5034868;28;20037;-76
2022/08/16 01:02:59;;;;;;;23.17;16.67;;;;;;;20.36;100.00;100537.50;5035399;28;20512;-77
2022/08/16 01:05:26;;;;;;;25.15;17.17;;;;;;;20.36;100.00;100538.38;5034702;28;20041;-77
2022/08/16 01:07:52;;;;;;;19.63;15.38;;;;;;;20.36;100.00;100540.16;5038937;28;20108;-76
2022/08/16 01:10:22;;;;;;;24.83;16.48;;;;;;;20.39;100.00;100540.09;5049587;28;20048;-76
2022/08/16 01:12:47;;;;;;;19.70;16.50;;;;;;;20.40;100.00;100533.81;5039008;28;20029;-76
2022/08/16 01:15:14;;;;;;;21.20;17.05;;;;;;;20.38;100.00;100531.19;5041881;28;20033;-77
2022/08/16 01:17:41;;;;;;;22.80;16.73;;;;;;;20.36;100.00;100533.03;5037923;28;20036;-76
2022/08/16 01:20:10;;;;;;;21.10;16.20;;;;;;;20.36;100.00;100534.81;5033913;28;20052;-77
2022/08/16 01:22:53;;;;;;;19.52;15.18;;;;;;;20.36;100.00;100522.34;5049156;28;20030;-76
2022/08/16 01:25:26;;;;;;;20.92;16.88;;;;;;;20.34;100.00;100526.00;5050916;28;20032;-77
2022/08/16 01:27:54;;;;;;;21.58;15.93;;;;;;;20.34;100.00;100526.00;5033542;28;20018;-77
2022/08/16 01:30:25;;;;;;;26.45;16.00;;;;;;;20.32;100.00;100522.47;5053649;28;20431;-77
2022/08/16 01:32:55;;;;;;;19.67;17.40;;;;;;;20.30;100.00;100532.34;5050331;28;20033;-76
2022/08/16 01:35:27;;;;;;;21.23;17.20;;;;;;;20.28;100.00;100534.16;5051630;28;20107;-76
2022/08/16 01:37:54;;;;;;;29.70;17.25;;;;;;;20.28;100.00;100527.03;5041398;28;20029;-75
2022/08/16 01:40:23;;;;;;;23.33;17.33;;;;;;;20.30;100.00;100532.34;5054457;28;20438;-76
2022/08/16 01:42:50;;;;;;;19.83;16.75;;;;;;;20.29;100.00;100527.91;5050110;28;20389;-78
2022/08/16 01:45:17;;;;;;;23.48;17.02;;;;;;;20.24;100.00;100527.16;5055861;28;20071;-77
2022/08/16 01:47:44;;;;;;;28.08;18.33;;;;;;;20.20;100.00;100535.28;5054163;28;20033;-75
2022/08/16 01:50:11;;;;;;;22.70;16.85;;;;;;;20.16;100.00;100530.94;5040386;28;20037;-78
2022/08/16 01:52:37;;;;;;;20.27;18.05;;;;;;;20.13;100.00;100535.47;5042234;28;20026;-77
2022/08/16 01:55:04;;;;;;;25.17;17.92;;;;;;;20.10;100.00;100525.75;5043580;28;20033;-76
2022/08/16 01:57:29;;;;;;;22.63;18.40;;;;;;;20.10;100.00;100531.09;5045150;28;20029;-76
2022/08/16 01:59:55;;;;;;;22.42;18.73;;;;;;;20.07;100.00;100541.88;5049378;28;20431;-77
2022/08/16 02:02:23;;;;;;;24.55;17.85;;;;;;;20.03;100.00;100540.22;5043131;28;20040;-76
2022/08/16 02:04:48;;;;;;;25.42;19.17;;;;;;;19.97;100.00;100535.91;5037222;28;20037;-77
2022/08/16 02:07:17;;;;;;;27.45;18.40;;;;;;;19.92;100.00;100536.97;5050280;28;20032;-75
2022/08/16 02:09:42;;;;;;;29.70;19.50;;;;;;;19.90;100.00;100538.78;5044240;28;20098;-76
2022/08/16 02:12:08;;;;;;;26.95;21.52;;;;;;;19.83;100.00;100527.41;5049086;28;20463;-77
2022/08/16 02:14:34;;;;;;;24.63;19.60;;;;;;;19.78;100.00;100523.94;5037027;28;20029;-77
2022/08/16 02:17:03;;;;;;;23.35;19.50;;;;;;;19.77;100.00;100523.06;5049934;28;20399;-77
2022/08/16 02:19:31;;;;;;;28.45;21.50;;;;;;;19.77;100.00;100523.06;5051687;28;20078;-76
2022/08/16 02:21:57;;;;;;;25.60;20.17;;;;;;;19.75;100.00;100526.69;5046311;28;20041;-77
2022/08/16 02:24:23;;;;;;;27.02;21.48;;;;;;;19.71;100.00;100528.59;5049974;28;20178;-78
2022/08/16 02:26:49;;;;;;;26.42;20.63;;;;;;;19.67;100.00;100526.91;5057484;28;20024;-78
2022/08/16 02:29:17;;;;;;;32.25;21.52;;;;;;;19.62;100.00;100529.69;5054722;28;20032;-77
2022/08/16 02:31:43;;;;;;;31.13;21.27;;;;;;;19.58;100.00;100527.16;5050629;28;20108;-76
2022/08/16 02:34:08;;;;;;;30.05;22.00;;;;;;;19.54;100.00;100527.22;5046651;28;20029;-77
2022/08/16 02:36:34;;;;;;;28.00;20.88;;;;;;;19.50;100.00;100520.19;5043045;28;20035;-75
2022/08/16 02:39:00;;;;;;;29.52;21.15;;;;;;;19.52;100.00;100518.38;5048039;28;20059;-77
2022/08/16 02:41:26;;;;;;;32.80;24.10;;;;;;;19.50;100.00;100519.34;5044667;28;20376;-77
2022/08/16 02:43:51;;;;;;;29.20;22.48;;;;;;;19.50;100.00;100517.53;5041600;28;20021;-77
2022/08/16 02:46:16;;;;;;;28.85;23.70;;;;;;;19.54;100.00;100516.53;5043382;28;20052;-77
2022/08/16 02:48:42;;;;;;;29.35;21.88;;;;;;;19.58;100.00;100522.69;5053614;28;20021;-77
2022/08/16 02:51:09;;;;;;;33.10;24.67;;;;;;;19.58;100.00;100519.16;5052008;28;20033;-75
2022/08/16 02:53:37;;;;;;;37.22;24.13;;;;;;;19.55;100.00;100518.28;5048749;28;20024;-77
2022/08/16 02:56:04;;;;;;;30.73;22.92;;;;;;;19.54;100.00;100516.53;5041271;28;20471;-77
2022/08/16 02:58:32;;;;;;;35.22;23.33;;;;;;;19.54;100.00;100519.19;5045231;28;20453;-77
2022/08/16 03:00:58;;;;;;;31.00;24.70;;;;;;;19.54;100.00;100526.34;5041348;28;20412;-75
2022/08/16 03:03:25;;;;;;;30.13;22.85;;;;;;;19.53;100.00;100522.81;5047959;28;20063;-77
2022/08/16 03:05:51;;;;;;;33.38;24.92;;;;;;;19.54;100.00;100521.00;5049610;28;20400;-77
2022/08/16 03:08:18;;;;;;;35.13;24.42;;;;;;;19.53;100.00;100519.25;5049701;28;20041;-75
2022/08/16 03:10:44;;;;;;;30.90;24.83;;;;;;;19.54;100.00;100521.88;5037659;28;20030;-77
2022/08/16 03:13:09;;;;;;;33.65;23.85;;;;;;;19.51;100.00;100513.94;5046856;28;20036;-78
2022/08/16 03:15:35;;;;;;;36.88;24.63;;;;;;;19.52;100.00;100513.03;5052387;28;20021;-77
2022/08/16 03:18:00;;;;;;;37.00;25.40;;;;;;;19.51;100.00;100516.63;5036953;28;20030;-77
2022/08/16 03:20:26;;;;;;;38.70;26.67;;;;;;;19.53;100.00;100520.16;5042969;28;20512;-78
2022/08/16 03:22:52;;;;;;;38.67;26.98;;;;;;;19.54;100.00;100526.34;5039504;28;20033;-75
2022/08/16 03:25:17;;;;;;;33.83;25.15;;;;;;;19.55;100.00;100523.63;5046754;28;20388;-76
2022/08/16 03:27:43;;;;;;;38.50;27.73;;;;;;;19.52;100.00;100518.38;5051248;28;20484;-75
2022/08/16 03:30:16;;;;;;;41.97;26.92;;;;;;;19.51;100.00;100527.28;5035003;28;20025;-77
2022/08/16 03:32:44;;;;;;;37.15;28.35;;;;;;;19.51;100.00;100526.44;5038236;28;20034;-76
2022/08/16 03:35:09;;;;;;;38.25;27.08;;;;;;;19.50;100.00;100519.34;5051568;28;20110;-77
2022/08/16 03:37:35;;;;;;;37.80;27.90;;;;;;;19.51;100.00;100521.97;5046798;28;20112;-76
2022/08/16 03:40:00;;;;;;;36.30;29.42;;;;;;;19.50;100.00;100525.53;5039213;28;20017;-76
2022/08/16 03:42:26;;;;;;;39.05;29.23;;;;;;;19.49;100.00;100531.81;5052901;28;20029;-77
2022/08/16 03:44:51;;;;;;;40.00;30.00;;;;;;;19.46;100.00;100526.53;5047548;28;20159;-75
2022/08/16 03:47:17;;;;;;;41.85;28.58;;;;;;;19.46;100.00;100533.66;5043666;28;20029;-76
2022/08/16 03:49:43;;;;;;;39.80;28.13;;;;;;;19.43;100.00;100529.28;5036211;28;20104;-77
2022/08/16 03:52:08;;;;;;;45.30;30.63;;;;;;;19.41;100.00;100533.81;5045028;28;20540;-78
2022/08/16 03:54:34;;;;;;;41.33;30.52;;;;;;;19.39;100.00;100535.63;5040695;28;20040;-76
2022/08/16 03:57:00;;;;;;;42.92;29.42;;;;;;;19.35;100.00;100536.59;5040296;28;20021;-76
2022/08/16 03:59:25;;;;;;;39.97;28.75;;;;;;;19.33;100.00;100531.31;5038832;28;20031;-78
2022/08/16 04:01:51;;;;;;;43.92;30.70;;;;;;;19.31;100.00;100529.59;5039915;28;20021;-76
2022/08/16 04:04:17;;;;;;;41.28;31.40;;;;;;;19.28;100.00;100532.34;5037925;28;20465;-76
2022/08/16 04:06:42;;;;;;;44.55;31.50;;;;;;;19.23;100.00;100534.25;5034468;28;20061;-77
2022/08/16 04:09:08;;;;;;;53.22;33.03;;;;;;;19.22;100.00;100541.34;5042144;28;20033;-77
2022/08/16 04:11:34;;;;;;;40.05;31.13;;;;;;;19.19;100.00;100542.34;5043790;28;20029;-75
2022/08/16 04:13:59;;;;;;;48.78;31.83;;;;;;;19.13;100.00;100546.94;5036169;28;20365;-76
2022/08/16 04:16:25;;;;;;;45.80;32.58;;;;;;;19.12;100.00;100548.69;5044998;28;20056;-77
2022/08/16 04:18:50;;;;;;;43.03;33.40;;;;;;;19.10;100.00;100547.88;5036690;28;20358;-77
2022/08/16 04:21:15;;;;;;;45.78;30.98;;;;;;;19.06;100.00;100556.88;5043655;28;20451;-75
2022/08/16 04:23:41;;;;;;;40.38;30.50;;;;;;;19.04;100.00;100554.25;5043946;28;20117;-76
2022/08/16 04:26:06;;;;;;;45.90;32.63;;;;;;;19.03;100.00;100557.81;5044661;28;20057;-77
2022/08/16 04:28:32;;;;;;;45.53;33.38;;;;;;;19.02;100.00;100560.50;5041465;28;20369;-76
2022/08/16 04:30:58;;;;;;;43.78;31.65;;;;;;;19.01;100.00;100558.75;5045043;28;20453;-77
2022/08/16 04:33:24;;;;;;;42.17;32.45;;;;;;;19.01;100.00;100569.41;5036616;28;20029;-77
2022/08/16 04:35:50;;;;;;;40.47;30.77;;;;;;;18.99;100.00;100569.47;5053751;28;20056;-76
2022/08/16 04:38:15;;;;;;;40.03;29.80;;;;;;;19.00;100.00;100559.66;5039243;28;20757;-77
2022/08/16 04:40:41;;;;;;;45.20;30.52;;;;;;;18.99;100.00;100565.91;5043620;28;20025;-76
2022/08/16 04:43:06;;;;;;;41.67;30.65;;;;;;;18.95;100.00;100574.88;5044124;28;20021;-77
2022/08/16 04:45:31;;;;;;;38.97;29.42;;;;;;;18.94;100.00;100568.69;5037722;28;20029;-77
2022/08/16 04:47:58;;;;;;;38.40;28.23;;;;;;;18.96;100.00;100571.31;5044850;28;20031;-77
2022/08/16 04:50:28;;;;;;;35.00;27.25;;;;;;;18.98;100.00;100570.38;5046337;28;20040;-75
2022/08/16 04:52:54;;;;;;;42.90;29.05;;;;;;;18.92;100.00;100558.97;5035408;28;20499;-76
2022/08/16 04:55:25;;;;;;;40.67;28.95;;;;;;;18.89;100.00;100569.69;5038811;28;20108;-77
2022/08/16 04:57:52;;;;;;;43.25;30.27;;;;;;;18.92;100.00;100570.50;5052050;28;20167;-77
2022/08/16 05:00:21;;;;;;;37.83;27.90;;;;;;;18.91;100.00;100570.53;5037826;28;20104;-78
2022/08/16 05:02:49;;;;;;;39.10;26.40;;;;;;;18.94;100.00;100578.47;5045038;28;20116;-75
2022/08/16 05:05:14;;;;;;;44.55;27.83;;;;;;;18.94;100.00;100582.00;5047101;28;20155;-78
2022/08/16 05:07:40;;;;;;;40.50;28.13;;;;;;;18.95;100.00;100581.09;5042417;28;20061;-77
2022/08/16 05:10:07;;;;;;;37.92;27.00;;;;;;;18.95;100.00;100582.88;5051683;28;20366;-77
2022/08/16 05:12:33;;;;;;;36.28;26.33;;;;;;;18.99;100.00;100587.22;5043531;28;20025;-76
2022/08/16 05:14:58;;;;;;;44.65;29.35;;;;;;;19.00;100.00;100589.00;5055799;28;20028;-77
2022/08/16 05:17:24;;;;;;;39.92;29.08;;;;;;;19.03;100.00;100588.91;5049905;28;20024;-77
2022/08/16 05:19:49;;;;;;;38.33;29.63;;;;;;;19.04;100.00;100588.00;5050286;28;20357;-76
2022/08/16 05:22:15;;;;;;;37.30;27.55;;;;;;;19.07;100.00;100574.59;5056798;28;20116;-78
2022/08/16 05:24:41;;;;;;;41.85;27.75;;;;;;;19.08;100.00;100584.34;5054152;28;20029;-77
2022/08/16 05:27:06;;;;;;;36.05;27.88;;;;;;;19.11;100.00;100591.41;5062483;28;20035;-77
2022/08/16 05:29:32;;;;;;;39.75;28.95;;;;;;;19.07;100.00;100584.41;5047217;28;20034;-77
2022/08/16 05:31:58;;;;;;;41.78;30.13;;;;;;;19.10;100.00;100585.22;5059671;28;20103;-77
2022/08/16 05:34:23;;;;;;;40.40;28.10;;;;;;;19.12;100.00;100588.72;5054205;28;20037;-75
2022/08/16 05:36:50;;;;;;;44.50;29.02;;;;;;;19.15;100.00;100596.66;5048025;28;20025;-75
2022/08/16 05:39:15;;;;;;;37.47;29.60;;;;;;;19.18;100.00;100585.91;5052501;28;20024;-75
2022/08/16 05:41:40;;;;;;;39.13;27.98;;;;;;;19.24;100.00;100598.22;5050112;28;20379;-74
2022/08/16 05:44:06;;;;;;;40.53;28.65;;;;;;;19.22;100.00;100597.38;5044304;28;20040;-74
2022/08/16 05:46:32;;;;;;;40.78;27.75;;;;;;;19.27;100.00;100598.16;5040623;28;20484;-75
2022/08/16 05:48:58;;;;;;;41.38;29.15;;;;;;;19.31;100.00;100598.97;5042134;28;20466;-74
2022/08/16 05:51:24;;;;;;;38.15;29.05;;;;;;;19.34;100.00;100598.88;5040387;28;20032;-73
2022/08/16 05:53:50;;;;;;;45.90;29.52;;;;;;;19.41;100.00;100604.94;5051529;28;20048;-74
2022/08/16 05:56:16;;;;;;;40.60;29.65;;;;;;;19.36;100.00;100599.72;5044745;28;20473;-74
2022/08/16 05:58:41;;;;;;;39.90;28.55;;;;;;;19.42;100.00;100607.56;5043719;28;20033;-74
2022/08/16 06:01:07;;;;;;;45.63;28.48;;;;;;;19.46;100.00;100609.25;5038816;28;20044;-73
2022/08/16 06:03:32;;;;;;;46.38;28.80;;;;;;;19.51;100.00;100607.34;5037525;28;20409;-74
2022/08/16 06:05:58;;;;;;;43.05;29.63;;;;;;;19.53;100.00;100605.53;5037512;28;20057;-75
2022/08/16 06:08:23;;;;;;;41.15;28.17;;;;;;;19.54;100.00;100609.94;5052498;28;20519;-74
2022/08/16 06:10:48;;;;;;;41.97;29.55;;;;;;;19.60;100.00;100610.72;5043855;28;20046;-76
2022/08/16 06:13:14;;;;;;;47.88;29.02;;;;;;;19.58;100.00;100607.22;5056674;28;20543;-74
2022/08/16 06:15:39;;;;;;;47.85;30.90;;;;;;;19.62;100.00;100615.09;5055744;28;20100;-76
2022/08/16 06:18:05;;;;;;;46.78;29.42;;;;;;;19.69;100.00;100616.69;5047717;28;20031;-75
2022/08/16 06:20:30;;;;;;;47.30;31.17;;;;;;;19.73;100.00;100624.66;5036430;28;20025;-76
2022/08/16 06:22:56;;;;;;;41.70;29.73;;;;;;;19.77;100.00;100629.88;5036033;28;20112;-75
2022/08/16 06:25:24;;;;;;;47.78;32.03;;;;;;;19.80;100.00;100619.13;5044372;28;20033;-76
2022/08/16 06:27:51;;;;;;;42.08;30.48;;;;;;;19.77;100.00;100624.53;5050568;28;20436;-76
2022/08/16 06:30:16;;;;;;;43.17;31.27;;;;;;;19.78;100.00;100634.28;5043149;28;20029;-78
2022/08/16 06:32:42;;;;;;;43.42;30.85;;;;;;;19.78;100.00;100626.28;5043139;28;20533;-77
2022/08/16 06:35:08;;;;;;;45.63;31.00;;;;;;;19.83;100.00;100631.53;5054901;28;20445;-77
2022/08/16 06:37:34;;;;;;;46.58;30.85;;;;;;;19.84;100.00;100631.47;5046840;28;20032;-76
2022/08/16 06:39:59;;;;;;;37.10;28.08;;;;;;;19.89;100.00;100636.72;5052720;28;20021;-77
2022/08/16 06:42:24;;;;;;;45.72;29.80;;;;;;;19.93;100.00;100634.88;5049345;28;20061;-77
2022/08/16 06:44:50;;;;;;;44.65;30.85;;;;;;;19.92;100.00;100628.63;5053950;28;20030;-77
2022/08/16 06:47:15;;;;;;;54.55;32.80;;;;;;;19.96;100.00;100624.97;5050135;28;20067;-77
2022/08/16 06:49:41;;;;;;;52.95;32.80;;;;;;;19.97;100.00;100620.53;5047578;28;20025;-76
2022/08/16 06:52:07;;;;;;;43.70;31.50;;;;;;;20.03;100.00;100625.69;5040789;28;20192;-77
2022/08/16 06:54:33;;;;;;;44.40;31.63;;;;;;;20.05;100.00;100629.19;5045903;28;20028;-75
2022/08/16 06:56:59;;;;;;;42.97;31.23;;;;;;;20.11;100.00;100628.16;5047227;28;20033;-78
2022/08/16 06:59:25;;;;;;;48.15;32.72;;;;;;;20.20;100.00;100633.25;5043117;28;20029;-75
2022/08/16 07:01:51;;;;;;;45.97;30.90;;;;;;;20.26;100.00;100632.22;5036456;28;20087;-77
2022/08/16 07:04:17;;;;;;;48.20;33.38;;;;;;;20.32;100.00;100640.94;5037225;28;20473;-76
2022/08/16 07:06:42;;;;;;;44.83;30.67;;;;;;;20.35;100.00;100643.53;5046969;28;20581;-77
2022/08/16 07:09:09;;;;;;;50.60;32.35;;;;;;;20.41;100.00;100647.81;5039904;28;20109;-75
2022/08/16 07:11:34;;;;;;;48.00;33.00;;;;;;;20.40;100.00;100648.72;5049088;28;20021;-76
2022/08/16 07:14:00;;;;;;;47.33;32.42;;;;;;;20.50;100.00;100647.56;5036875;28;20052;-77
2022/08/16 07:16:25;;;;;;;47.72;33.28;;;;;;;20.53;100.00;100647.47;5049568;28;20024;-77
2022/08/16 07:18:52;;;;;;;50.53;34.38;;;;;;;20.54;100.00;100643.03;5043132;28;20548;-78
2022/08/16 07:21:17;;;;;;;47.58;31.00;;;;;;;20.58;100.00;100655.38;5045619;28;20103;-75
2022/08/16 07:23:45;;;;;;;48.85;32.60;;;;;;;20.62;100.00;100646.34;5039162;28;20132;-76
2022/08/16 07:26:16;;;;;;;55.83;35.13;;;;;;;20.67;100.00;100660.47;5046954;28;20511;-76
2022/08/16 07:28:41;;;;;;;56.08;33.58;;;;;;;20.75;100.00;100657.59;5036627;28;20412;-75
2022/08/16 07:31:06;;;;;;;47.28;30.60;;;;;;;20.90;100.00;100666.97;5042922;28;20021;-75
2022/08/16 07:33:34;;;;;;;50.95;33.25;;;;;;;21.01;100.00;100672.00;5043630;28;20060;-78
2022/08/16 07:35:59;;;;;;;51.78;33.13;;;;;;;21.10;100.00;100670.88;5041078;28;21384;-76
2022/08/16 07:38:26;;;;;;;61.15;34.90;;;;;;;21.13;100.00;100668.97;5043413;28;20018;-77
2022/08/16 07:40:53;;;;;;;49.28;32.88;;;;;;;21.23;100.00;100670.44;5042240;28;20067;-76
2022/08/16 07:43:19;;;;;;;50.75;34.88;;;;;;;21.27;100.00;100675.69;5038662;28;20443;-77
2022/08/16 07:45:45;;;;;;;47.97;32.47;;;;;;;21.35;100.00;100679.00;5034774;28;20108;-75
2022/08/16 07:48:11;;;;;;;56.00;33.95;;;;;;;21.41;100.00;100689.53;5042084;28;20037;-76
2022/08/16 07:50:36;;;;;;;51.28;34.28;;;;;;;21.42;100.00;100685.03;5037692;28;20025;-76
2022/08/16 07:53:02;;;;;;;56.38;34.38;;;;;;;21.37;100.00;100682.53;5042265;28;20021;-77
2022/08/16 07:55:27;;;;;;;49.33;33.00;;;;;;;21.43;100.00;100687.66;5043788;28;20063;-76
2022/08/16 07:57:53;;;;;;;48.92;33.13;;;;;;;21.53;100.00;100689.19;5040503;28;20021;-77
2022/08/16 08:00:18;;;;;;;51.40;33.42;;;;;;;21.56;100.00;100689.06;5034318;28;20017;-76
2022/08/16 08:02:46;;;;;;;57.45;37.22;;;;;;;21.63;100.00;100691.56;5034216;28;20032;-78
2022/08/16 08:05:11;;;;;;;52.33;35.50;;;;;;;21.67;100.00;100690.53;5039393;28;20056;-78
2022/08/16 08:07:36;;;;;;;46.25;30.95;;;;;;;21.76;100.00;100695.63;5036070;28;20029;-78
2022/08/16 08:10:04;;;;;;;45.83;32.55;;;;;;;21.85;100.00;100684.59;5033991;28;20021;-77
2022/08/16 08:12:30;;;;;;;49.85;31.75;;;;;;;21.94;100.00;100683.41;5060160;28;20024;-79
2022/08/16 08:14:55;;;;;;;41.60;30.08;;;;;;;22.00;100.00;100695.72;5052328;28;20044;-76
2022/08/16 08:17:21;;;;;;;43.10;28.30;;;;;;;22.11;100.00;100685.53;5053339;28;20024;-76
2022/08/16 08:19:47;;;;;;;43.97;29.88;;;;;;;22.22;100.00;100693.22;5041512;28;20053;-74
2022/08/16 08:22:13;;;;;;;47.90;32.08;;;;;;;22.22;100.00;100694.06;5033744;28;20064;-74
2022/08/16 08:24:38;;;;;;;41.60;28.80;;;;;;;22.33;100.00;100685.66;5036366;28;20052;-74
2022/08/16 08:27:07;;;;;;;39.10;25.33;;;;;;;22.46;100.00;100686.13;5045581;28;20102;-76
2022/08/16 08:29:34;;;;;;;43.80;29.58;;;;;;;22.53;100.00;100686.78;5034213;28;20592;-75
2022/08/16 08:32:00;;;;;;;42.80;29.60;;;;;;;22.62;100.00;100697.19;5034183;28;20299;-76
2022/08/16 08:34:26;;;;;;;45.95;30.00;;;;;;;22.65;100.00;100693.50;5033542;28;20036;-75
2022/08/16 08:36:52;;;;;;;37.95;28.90;;;;;;;22.64;100.00;100700.69;5033620;28;20393;-76
2022/08/16 08:39:17;;;;;;;36.22;26.27;;;;;;;22.65;100.00;100701.56;5046053;28;20143;-74
2022/08/16 08:41:44;;;;;;;38.78;29.60;;;;;;;22.71;100.00;100706.72;5033773;28;20116;-75
2022/08/16 08:44:10;;;;;;;38.53;29.13;;;;;;;22.76;100.00;100707.41;5034160;28;20025;-75
2022/08/16 08:46:36;;;;;;;51.55;32.88;;;;;;;22.83;100.00;100722.34;5039612;28;20495;-74
2022/08/16 08:49:02;;;;;;;44.10;31.40;;;;;;;22.78;100.00;100716.28;5034645;28;20562;-76
2022/08/16 08:51:28;;;;;;;50.33;34.17;;;;;;;22.83;100.00;100730.41;5038266;28;20036;-75
2022/08/16 08:53:54;;;;;;;46.13;30.48;;;;;;;22.96;100.00;100728.13;5042522;28;20032;-76
2022/08/16 08:56:19;;;;;;;51.75;34.10;;;;;;;22.92;100.00;100731.88;5041287;28;20100;-76
2022/08/16 08:58:45;;;;;;;43.58;32.47;;;;;;;23.00;100.00;100742.31;5035189;28;20041;-75
2022/08/16 09:01:10;;;;;;;47.00;33.08;;;;;;;23.13;100.00;100737.38;5034644;28;20022;-77
2022/08/16 09:03:38;;;;;;;48.30;31.95;;;;;;;23.29;100.00;100740.38;5035265;28;20040;-77
2022/08/16 09:06:05;;;;;;;48.80;31.55;;;;;;;23.42;100.00;100736.28;5050021;28;20099;-75
2022/08/16 09:08:31;;;;;;;44.00;30.48;;;;;;;23.32;100.00;100745.63;5053607;28;20415;-76
2022/08/16 09:10:58;;;;;;;42.28;28.95;;;;;;;23.27;100.00;100747.63;5043089;28;20021;-75
2022/08/16 09:13:24;;;;;;;45.75;30.13;;;;;;;23.48;100.00;100749.50;5035696;28;20413;-76
2022/08/16 09:15:52;;;;;;;39.85;28.55;;;;;;;23.75;100.00;100749.31;5033528;28;20030;-76
2022/08/16 09:18:17;;;;;;;46.95;29.50;;;;;;;23.81;100.00;100746.41;5034020;28;20033;-77
2022/08/16 09:20:44;;;;;;;41.55;28.20;;;;;;;23.98;100.00;100747.56;5033497;28;20018;-75
2022/08/16 09:23:10;;;;;;;43.70;28.98;;;;;;;24.13;100.00;100754.97;5034117;28;20108;-77
2022/08/16 09:25:36;;;;;;;33.28;25.10;;;;;;;24.13;100.00;100746.91;5046820;28;20025;-76
2022/08/16 09:28:03;;;;;;;41.67;24.30;;;;;;;24.08;100.00;100754.31;5036410;28;20045;-75
2022/08/16 09:30:28;;;;;;;39.97;26.83;;;;;;;24.13;100.00;100754.97;5047243;28;20472;-74
2022/08/16 09:32:54;;;;;;;42.08;25.33;;;;;;;24.12;100.00;100753.25;5039381;28;20035;-76
2022/08/16 09:35:20;;;;;;;30.45;22.85;;;;;;;24.20;100.00;100753.78;5044809;28;20021;-76
2022/08/16 09:37:46;;;;;;;32.08;24.20;;;;;;;24.18;100.00;100758.34;5032473;28;20045;-76
2022/08/16 09:40:12;;;;;;;30.73;23.45;;;;;;;24.22;100.00;100759.09;5032396;28;20068;-77
2022/08/16 09:42:38;;;;;;;27.05;22.45;;;;;;;24.44;100.00;100758.19;5033628;28;20027;-75
2022/08/16 09:45:07;;;;;;;29.65;20.63;;;;;;;24.55;100.00;100755.91;5033464;28;20459;-76
2022/08/16 09:47:39;;;;;;;28.35;22.35;;;;;;;24.61;100.00;100765.53;5033479;28;20033;-75
2022/08/16 09:50:07;;;;;;;30.80;21.25;;;;;;;24.80;100.00;100754.84;5033098;28;20092;-76
2022/08/16 09:52:34;;;;;;;25.48;17.80;;;;;;;25.05;100.00;100765.41;5041570;28;20036;-75
2022/08/16 09:55:02;;;;;;;27.42;21.58;;;;;;;25.24;100.00;100754.66;5043403;28;20069;-76
2022/08/16 09:57:27;;;;;;;30.13;21.95;;;;;;;25.30;100.00;100754.41;5037112;28;20033;-74
2022/08/16 09:59:53;;;;;;;27.58;23.38;;;;;;;25.47;100.00;100756.31;5040774;28;20017;-76
2022/08/16 10:02:18;;;;;;;35.75;22.70;;;;;;;25.45;100.00;100758.22;5039427;28;20025;-75
2022/08/16 10:04:43;;;;;;;28.83;20.98;;;;;;;25.23;100.00;100755.59;5048022;28;20382;-76
2022/08/16 10:07:09;;;;;;;32.28;23.88;;;;;;;25.30;100.00;100759.78;5056355;28;20061;-76
2022/08/16 10:09:34;;;;;;;32.50;22.77;;;;;;;25.34;100.00;100765.91;5056738;28;20361;-77
2022/08/16 10:14:44;;;;;;;24.80;19.92;;;;;;;25.59;100.00;100769.22;5056987;28;20052;-76
2022/08/16 10:17:11;;;;;;;35.10;22.42;;;;;;;25.57;100.00;100773.81;5054430;28;20384;-76
2022/08/16 10:19:36;;;;;;;23.50;19.60;;;;;;;25.91;100.00;100772.19;5055281;28;20025;-77
2022/08/16 10:22:01;;;;;;;27.90;20.65;;;;;;;25.85;100.00;100772.47;5056261;28;20039;-74
2022/08/16 10:24:27;;;;;;;28.42;20.55;;;;;;;25.83;100.00;100779.78;5055981;28;20028;-74
2022/08/16 10:26:52;;;;;;;30.02;20.20;;;;;;;25.85;100.00;100772.47;5039507;28;20057;-76
2022/08/16 10:29:19;;;;;;;27.02;20.35;;;;;;;26.03;100.00;100770.75;5037719;28;20119;-76
2022/08/16 10:31:44;;;;;;;25.80;19.38;;;;;;;25.95;100.00;100767.53;5041647;28;20052;-76
2022/08/16 10:34:10;;;;;;;27.15;20.30;;;;;;;25.79;100.00;100778.16;5055622;28;20499;-75
2022/08/16 10:36:35;;;;;;;24.98;18.52;;;;;;;25.81;100.00;100778.97;5055722;28;20021;-76
2022/08/16 10:39:02;;;;;;;30.15;21.92;;;;;;;25.99;100.00;100777.22;5055754;28;20017;-75
2022/08/16 10:41:27;;;;;;;33.35;21.50;;;;;;;25.67;100.00;100784.16;5054929;28;20029;-76
2022/08/16 10:43:52;;;;;;;23.70;19.17;;;;;;;25.70;100.00;100784.00;5049457;28;20091;-77
2022/08/16 10:46:18;;;;;;;23.33;18.35;;;;;;;25.72;100.00;100784.78;5055690;28;20023;-75
2022/08/16 10:48:44;;;;;;;27.73;16.45;;;;;;;25.82;100.00;100788.78;5036446;28;20052;-76
2022/08/16 10:51:11;;;;;;;26.35;16.70;;;;;;;25.71;100.00;100791.16;5035878;28;20036;-74
2022/08/16 10:53:37;;;;;;;24.05;18.40;;;;;;;25.54;100.00;100798.22;5036160;28;20075;-75
2022/08/16 10:56:09;;;;;;;25.45;17.50;;;;;;;25.48;100.00;100793.09;5040872;28;20425;-75
2022/08/16 10:58:35;;;;;;;24.17;16.63;;;;;;;25.47;100.00;100794.03;5044721;28;20333;-75
2022/08/16 11:01:04;;;;;;;21.20;15.13;;;;;;;25.50;100.00;100793.91;5036211;28;20034;-74